Terminal Aerodrome Forecast
Issued by NWS Charleston, WV

Current Version | Previous Version | Graphics & Text | Print | Product List | Glossary On
Versions: 1 2 3 4 5 6 7 8 9 10 11 12 13 14 15 16 17 18 19 20 21 22 23 24 25 26
903
FTUS41 KRLX 292338
TAFBKW
TAF
KBKW 292338Z 3000/3024 23010KT P6SM VCSH SCT035 OVC045
     FM300300 11005KT 4SM SHRA OVC035
     FM300500 11004KT 4SM BR OVC018
     FM300600 12005KT P6SM OVC007
     FM301000 12007KT 3SM SHRA OVC005
     FM301500 13011KT 3SM SHRA VCTS OVC010CB
     FM301600 13010KT 5SM -SHRA OVC019
     FM301900 14008KT P6SM BKN040=

USA.gov is the U.S. government's official web portal to all federal, state and local government web resources and services.